Pontiac, IL

6:17 AM CST on December 11, 2017 (GMT -0600)
Pontiac Municipal

Weather History for KPNT - December, 2013

Change the Weather History Date:

Saturday, December 28, 2013

  Actual Average Record
Temperature  
Mean Temperature 45 °F -  
Max Temperature 55 °F 34 °F 62 °F (1982)
Min Temperature 35 °F 18 °F -23 °F (1924)
Degree Days  
Heating Degree Days 20    
Moisture  
Dew Point 32 °F    
Average Humidity 69    
Maximum Humidity 81    
Minimum Humidity 44    
Precipitation  
Precipitation 0.00 in - - ()
Sea Level Pressure  
Sea Level Pressure 30.03 in    
Wind  
Wind Speed 11 mph (SSW)    
Max Wind Speed 17 mph    
Max Gust Speed 24 mph    
Visibility 10 miles    
Events      
Averages and records for this station are not official NWS values.
T = Trace of Precipitation, MM = Missing Value Source: NWS Daily Summary

Daily Weather History Graph

Daily Weather History Graph

Search for Another Location

Airport or City:

Trip Planner

Search our weather history database for the weather conditions in past years. The results will help you decide how hot, cold, wet, or windy it might be!

Date:

Astronomy

Dec. 28, 2013 Rise Set
Actual Time 7:18 AM CST 4:34 PM CST
Civil Twilight 6:47 AM CST 5:05 PM CST
Nautical Twilight 6:12 AM CST 5:39 PM CST
Astronomical Twilight 5:39 AM CST 6:13 PM CST
Moon 2:54 AM CST (12/28) 1:25 PM CST (12/28)
Length of Visible Light 10h 17m
Length of Day
9h 15m
Waning Crescent, 19% of the Moon is Illuminated
Dec 28
Waning Crescent
Jan 1
New
Jan 7
First Quarter
Jan 15
Full
Jan 23
Last Quarter

Hourly Weather History & Observations

Time (CST) Temp. Windchill Dew Point Humidity Pressure Visibility Wind Dir Wind Speed Gust Speed Precip Events Conditions
12:15 AM 39.2 °F 31.2 °F 30.2 °F 70% 30.13 in 10.0 mi SW 13.8 mph 18.4 mph N/A   Clear
12:35 AM 39.2 °F 32.0 °F 30.2 °F 70% 30.13 in 10.0 mi SW 11.5 mph - N/A   Clear
12:55 AM 39.2 °F 32.0 °F 30.2 °F 70% 30.12 in 10.0 mi SW 11.5 mph - N/A   Clear
1:15 AM 39.2 °F 32.0 °F 30.2 °F 70% 30.12 in 10.0 mi SW 11.5 mph - N/A   Clear
1:35 AM 39.2 °F 33.0 °F 30.2 °F 70% 30.13 in 10.0 mi SW 9.2 mph - N/A   Clear
1:55 AM 37.4 °F 30.8 °F 30.2 °F 75% 30.13 in 10.0 mi SW 9.2 mph - N/A   Clear
2:15 AM 37.4 °F 32.1 °F 30.2 °F 75% 30.13 in 10.0 mi SW 6.9 mph - N/A   Clear
2:35 AM 37.4 °F 31.4 °F 30.2 °F 75% 30.13 in 10.0 mi SW 8.1 mph - N/A   Clear
2:55 AM 37.4 °F 30.3 °F 30.2 °F 75% 30.13 in 10.0 mi SW 10.4 mph - N/A   Clear
3:15 AM 37.4 °F 30.8 °F 30.2 °F 75% 30.13 in 10.0 mi SW 9.2 mph - N/A   Clear
3:35 AM 37.4 °F 30.8 °F 30.2 °F 75% 30.13 in 10.0 mi SW 9.2 mph - N/A   Clear
3:55 AM 37.4 °F 30.8 °F 30.2 °F 75% 30.13 in 10.0 mi SW 9.2 mph - N/A   Clear
4:15 AM 37.4 °F 30.3 °F 30.2 °F 75% 30.12 in 10.0 mi SW 10.4 mph - N/A   Clear
4:35 AM 37.4 °F 30.8 °F 30.2 °F 75% 30.12 in 10.0 mi SW 9.2 mph - N/A   Clear
4:55 AM 37.4 °F 31.4 °F 30.2 °F 75% 30.12 in 10.0 mi SW 8.1 mph - N/A   Clear
5:15 AM 37.4 °F 31.4 °F 30.2 °F 75% 30.12 in 10.0 mi SW 8.1 mph - N/A   Clear
5:35 AM 35.6 °F 29.9 °F 30.2 °F 81% 30.12 in 10.0 mi SW 6.9 mph - N/A   Clear
5:55 AM 35.6 °F 29.9 °F 30.2 °F 81% 30.11 in 10.0 mi SW 6.9 mph - N/A   Clear
6:15 AM 35.6 °F 29.2 °F 30.2 °F 81% 30.11 in 10.0 mi SW 8.1 mph - N/A   Clear
6:35 AM 35.6 °F 28.6 °F 30.2 °F 81% 30.11 in 10.0 mi SW 9.2 mph - N/A   Clear
6:55 AM 35.6 °F 29.2 °F 30.2 °F 81% 30.11 in 10.0 mi SW 8.1 mph - N/A   Clear
7:15 AM 35.6 °F 30.7 °F 30.2 °F 81% 30.11 in 10.0 mi SSW 5.8 mph - N/A   Clear
7:35 AM 35.6 °F 29.2 °F 30.2 °F 81% 30.11 in 10.0 mi SSW 8.1 mph - N/A   Clear
7:55 AM 35.6 °F 30.7 °F 30.2 °F 81% 30.11 in 10.0 mi SW 5.8 mph - N/A   Clear
8:15 AM 37.4 °F 31.4 °F 32.0 °F 81% 30.10 in 10.0 mi SSW 8.1 mph - N/A   Clear
8:35 AM 37.4 °F 30.8 °F 32.0 °F 81% 30.10 in 10.0 mi SSW 9.2 mph - N/A   Clear
8:55 AM 39.2 °F 33.0 °F 32.0 °F 75% 30.10 in 10.0 mi SSW 9.2 mph - N/A   Clear
9:15 AM 41.0 °F 34.7 °F 33.8 °F 76% 30.10 in 10.0 mi SSW 10.4 mph - N/A   Clear
9:35 AM 42.8 °F 37.0 °F 33.8 °F 70% 30.10 in 10.0 mi SSW 10.4 mph - N/A   Clear
9:55 AM 44.6 °F 38.1 °F 33.8 °F 66% 30.10 in 10.0 mi SSW 13.8 mph - N/A   Clear
10:15 AM 44.6 °F 37.2 °F 33.8 °F 66% 30.10 in 10.0 mi SSW 17.3 mph - N/A   Clear
10:35 AM 46.4 °F 39.8 °F 33.8 °F 62% 30.09 in 10.0 mi SW 16.1 mph 19.6 mph N/A   Clear
10:55 AM 46.4 °F 40.7 °F 33.8 °F 62% 30.07 in 10.0 mi SSW 12.7 mph - N/A   Clear
11:15 AM 48.2 °F - 33.8 °F 58% 30.06 in 10.0 mi SSW 16.1 mph - N/A   Clear
11:35 AM 48.2 °F - 33.8 °F 58% 30.05 in 10.0 mi SSW 16.1 mph - N/A   Clear
11:55 AM 50.0 °F - 35.6 °F 58% 30.04 in 10.0 mi SW 12.7 mph - N/A   Clear
12:15 PM 51.8 °F - 35.6 °F 54% 30.03 in 10.0 mi SW 11.5 mph - N/A   Clear
12:35 PM 51.8 °F - 35.6 °F 54% 30.03 in 10.0 mi SSW 16.1 mph - N/A   Clear
12:55 PM 53.6 °F - 35.6 °F 51% 30.02 in 10.0 mi SSW 13.8 mph - N/A   Clear
1:15 PM 53.6 °F - 35.6 °F 51% 30.02 in 10.0 mi SW 12.7 mph - N/A   Clear
1:35 PM 53.6 °F - 35.6 °F 51% 30.01 in 10.0 mi SSW 12.7 mph 23.0 mph N/A   Clear
1:55 PM 55.4 °F - 33.8 °F 44% 30.01 in 10.0 mi SSW 16.1 mph 24.2 mph N/A   Clear
2:15 PM 53.6 °F - 35.6 °F 51% 29.99 in 10.0 mi SSW 12.7 mph 18.4 mph N/A   Clear
2:35 PM 53.6 °F - 37.4 °F 54% 29.98 in 10.0 mi SSW 12.7 mph - N/A   Clear
2:55 PM 53.6 °F - 37.4 °F 54% 29.98 in 10.0 mi SSW 12.7 mph - N/A   Clear
3:15 PM 53.6 °F - 35.6 °F 51% 29.98 in 10.0 mi SSW 16.1 mph - N/A   Clear
3:35 PM 51.8 °F - 35.6 °F 54% 29.97 in 10.0 mi SSW 12.7 mph - N/A   Clear
3:55 PM 51.8 °F - 37.4 °F 58% 29.97 in 10.0 mi South 12.7 mph - N/A   Clear
4:15 PM 48.2 °F - 35.6 °F 62% 29.98 in 10.0 mi South 13.8 mph - N/A   Clear
4:35 PM 46.4 °F 40.1 °F 35.6 °F 66% 29.98 in 10.0 mi South 15.0 mph - N/A   Clear
4:55 PM 46.4 °F 40.1 °F 35.6 °F 66% 29.97 in 10.0 mi South 15.0 mph - N/A   Clear
5:15 PM 46.4 °F 39.8 °F 35.6 °F 66% 29.96 in 10.0 mi South 16.1 mph - N/A   Clear
5:35 PM 46.4 °F 40.4 °F 33.8 °F 62% 29.96 in 10.0 mi South 13.8 mph - N/A   Clear
5:55 PM 42.8 °F 36.2 °F 33.8 °F 70% 29.95 in 10.0 mi South 12.7 mph - N/A   Clear
6:15 PM 42.8 °F 36.2 °F 33.8 °F 70% 29.95 in 10.0 mi South 12.7 mph - N/A   Clear
6:35 PM 41.0 °F 33.5 °F 33.8 °F 76% 29.95 in 10.0 mi South 13.8 mph - N/A   Clear
6:55 PM 41.0 °F 33.5 °F 33.8 °F 76% 29.95 in 10.0 mi South 13.8 mph - N/A   Clear
7:15 PM 39.2 °F 31.2 °F 32.0 °F 75% 29.95 in 10.0 mi South 13.8 mph - N/A   Clear
7:35 PM 39.2 °F 30.8 °F 32.0 °F 75% 29.94 in 10.0 mi South 15.0 mph - N/A   Clear
7:55 PM 39.2 °F 30.5 °F 32.0 °F 75% 29.93 in 10.0 mi South 16.1 mph - N/A   Clear
8:15 PM 39.2 °F 31.2 °F 33.8 °F 81% 29.93 in 10.0 mi South 13.8 mph - N/A   Clear
8:35 PM 39.2 °F 31.6 °F 33.8 °F 81% 29.91 in 10.0 mi South 12.7 mph - N/A   Clear
8:55 PM 39.2 °F 30.8 °F 32.0 °F 75% 29.91 in 10.0 mi South 15.0 mph 21.9 mph N/A   Clear
9:15 PM 39.2 °F 30.8 °F 32.0 °F 75% 29.90 in 10.0 mi South 15.0 mph 19.6 mph N/A   Clear
9:35 PM 39.2 °F 30.8 °F 30.2 °F 70% 29.89 in 10.0 mi South 15.0 mph - N/A   Clear
9:55 PM 39.2 °F 32.5 °F 30.2 °F 70% 29.89 in 10.0 mi SSW 10.4 mph - N/A   Clear
10:15 PM 39.2 °F 32.0 °F 30.2 °F 70% 29.88 in 10.0 mi SSW 11.5 mph - N/A   Clear
10:35 PM 39.2 °F 32.5 °F 30.2 °F 70% 29.87 in 10.0 mi SSW 10.4 mph - N/A   Clear
10:55 PM 39.2 °F 32.5 °F 30.2 °F 70% 29.86 in 10.0 mi SSW 10.4 mph - N/A   Clear
11:15 PM 39.2 °F 32.5 °F 30.2 °F 70% 29.87 in 10.0 mi SSW 10.4 mph - N/A   Clear
11:35 PM 39.2 °F 32.5 °F 30.2 °F 70% 29.88 in 10.0 mi SSW 10.4 mph - N/A   Clear
11:55 PM 39.2 °F 32.0 °F 30.2 °F 70% 29.89 in 10.0 mi SSW 11.5 mph - N/A   Clear